sensor_id;sensor_type;location;lat;lon;timestamp;P1;durP1;ratioP1;P2;durP2;ratioP2
54167;SDS011;68429;50.958;3.592;2023-08-30T00:01:49;8.50;;;5.05;;
54167;SDS011;68429;50.958;3.592;2023-08-30T00:04:15;8.65;;;5.95;;
54167;SDS011;68429;50.958;3.592;2023-08-30T00:06:40;7.90;;;5.35;;
54167;SDS011;68429;50.958;3.592;2023-08-30T00:09:06;7.18;;;5.38;;
54167;SDS011;68429;50.958;3.592;2023-08-30T00:11:32;7.63;;;5.40;;
54167;SDS011;68429;50.958;3.592;2023-08-30T00:14:04;7.60;;;5.72;;
54167;SDS011;68429;50.958;3.592;2023-08-30T00:16:32;8.32;;;5.97;;
54167;SDS011;68429;50.958;3.592;2023-08-30T00:18:58;9.32;;;6.30;;
54167;SDS011;68429;50.958;3.592;2023-08-30T00:21:24;7.78;;;5.72;;
54167;SDS011;68429;50.958;3.592;2023-08-30T00:23:50;6.78;;;5.55;;
54167;SDS011;68429;50.958;3.592;2023-08-30T00:26:16;9.32;;;5.95;;
54167;SDS011;68429;50.958;3.592;2023-08-30T00:28:42;7.07;;;5.75;;
54167;SDS011;68429;50.958;3.592;2023-08-30T00:31:08;8.02;;;6.22;;
54167;SDS011;68429;50.958;3.592;2023-08-30T00:33:34;9.00;;;5.90;;
54167;SDS011;68429;50.958;3.592;2023-08-30T00:35:59;9.00;;;5.82;;
54167;SDS011;68429;50.958;3.592;2023-08-30T00:38:28;13.32;;;6.60;;
54167;SDS011;68429;50.958;3.592;2023-08-30T00:40:54;13.95;;;6.07;;
54167;SDS011;68429;50.958;3.592;2023-08-30T00:43:20;6.88;;;5.70;;
54167;SDS011;68429;50.958;3.592;2023-08-30T00:45:46;7.72;;;5.82;;
54167;SDS011;68429;50.958;3.592;2023-08-30T00:48:13;11.05;;;5.85;;
54167;SDS011;68429;50.958;3.592;2023-08-30T00:50:41;9.68;;;5.88;;
54167;SDS011;68429;50.958;3.592;2023-08-30T00:53:07;7.57;;;6.25;;
54167;SDS011;68429;50.958;3.592;2023-08-30T00:55:35;6.15;;;5.55;;
54167;SDS011;68429;50.958;3.592;2023-08-30T00:58:02;9.27;;;6.25;;
54167;SDS011;68429;50.958;3.592;2023-08-30T01:00:29;10.55;;;6.43;;
54167;SDS011;68429;50.958;3.592;2023-08-30T01:02:55;11.60;;;6.28;;
54167;SDS011;68429;50.958;3.592;2023-08-30T01:05:22;9.23;;;6.03;;
54167;SDS011;68429;50.958;3.592;2023-08-30T01:07:48;6.65;;;5.90;;
54167;SDS011;68429;50.958;3.592;2023-08-30T01:10:15;8.80;;;5.80;;
54167;SDS011;68429;50.958;3.592;2023-08-30T01:12:47;11.13;;;6.55;;
54167;SDS011;68429;50.958;3.592;2023-08-30T01:15:19;8.25;;;6.05;;
54167;SDS011;68429;50.958;3.592;2023-08-30T01:17:46;8.15;;;5.85;;
54167;SDS011;68429;50.958;3.592;2023-08-30T01:20:14;7.70;;;5.97;;
54167;SDS011;68429;50.958;3.592;2023-08-30T01:23:00;10.93;;;5.90;;
54167;SDS011;68429;50.958;3.592;2023-08-30T01:28:28;8.60;;;6.18;;
54167;SDS011;68429;50.958;3.592;2023-08-30T01:30:56;6.00;;;5.40;;
54167;SDS011;68429;50.958;3.592;2023-08-30T01:33:24;9.35;;;6.15;;
54167;SDS011;68429;50.958;3.592;2023-08-30T01:35:51;11.32;;;6.30;;
54167;SDS011;68429;50.958;3.592;2023-08-30T01:38:18;8.75;;;6.38;;
54167;SDS011;68429;50.958;3.592;2023-08-30T01:40:44;9.40;;;6.53;;
54167;SDS011;68429;50.958;3.592;2023-08-30T01:43:10;11.38;;;5.78;;
54167;SDS011;68429;50.958;3.592;2023-08-30T01:45:38;11.57;;;5.68;;
54167;SDS011;68429;50.958;3.592;2023-08-30T01:50:37;7.40;;;5.43;;
54167;SDS011;68429;50.958;3.592;2023-08-30T01:53:05;7.63;;;5.85;;
54167;SDS011;68429;50.958;3.592;2023-08-30T01:55:32;6.57;;;5.30;;
54167;SDS011;68429;50.958;3.592;2023-08-30T01:57:59;7.85;;;5.30;;
54167;SDS011;68429;50.958;3.592;2023-08-30T02:00:24;6.90;;;4.40;;
54167;SDS011;68429;50.958;3.592;2023-08-30T02:02:50;5.75;;;4.32;;
54167;SDS011;68429;50.958;3.592;2023-08-30T02:05:15;5.90;;;4.97;;
54167;SDS011;68429;50.958;3.592;2023-08-30T02:10:28;5.45;;;4.95;;
54167;SDS011;68429;50.958;3.592;2023-08-30T02:12:59;7.85;;;5.47;;
54167;SDS011;68429;50.958;3.592;2023-08-30T02:15:26;10.68;;;6.00;;
54167;SDS011;68429;50.958;3.592;2023-08-30T02:17:54;6.70;;;5.97;;
54167;SDS011;68429;50.958;3.592;2023-08-30T02:20:20;8.82;;;5.78;;
54167;SDS011;68429;50.958;3.592;2023-08-30T02:22:47;12.02;;;5.97;;
54167;SDS011;68429;50.958;3.592;2023-08-30T02:25:12;7.07;;;6.38;;
54167;SDS011;68429;50.958;3.592;2023-08-30T02:27:38;11.20;;;7.13;;
54167;SDS011;68429;50.958;3.592;2023-08-30T02:30:04;12.52;;;7.07;;
54167;SDS011;68429;50.958;3.592;2023-08-30T02:32:30;9.98;;;7.25;;
54167;SDS011;68429;50.958;3.592;2023-08-30T02:34:56;9.32;;;7.53;;
54167;SDS011;68429;50.958;3.592;2023-08-30T02:37:22;14.98;;;7.75;;
54167;SDS011;68429;50.958;3.592;2023-08-30T02:39:48;10.40;;;7.60;;
54167;SDS011;68429;50.958;3.592;2023-08-30T02:42:13;10.43;;;7.53;;
54167;SDS011;68429;50.958;3.592;2023-08-30T02:44:39;13.23;;;8.38;;
54167;SDS011;68429;50.958;3.592;2023-08-30T02:47:05;14.77;;;8.30;;
54167;SDS011;68429;50.958;3.592;2023-08-30T02:49:30;12.27;;;7.72;;
54167;SDS011;68429;50.958;3.592;2023-08-30T02:51:56;12.63;;;8.00;;
54167;SDS011;68429;50.958;3.592;2023-08-30T02:54:22;12.38;;;7.53;;
54167;SDS011;68429;50.958;3.592;2023-08-30T02:56:47;10.43;;;7.28;;
54167;SDS011;68429;50.958;3.592;2023-08-30T02:59:13;14.80;;;7.22;;
54167;SDS011;68429;50.958;3.592;2023-08-30T03:01:39;12.68;;;7.32;;
54167;SDS011;68429;50.958;3.592;2023-08-30T03:04:05;12.00;;;7.80;;
54167;SDS011;68429;50.958;3.592;2023-08-30T03:06:34;14.18;;;8.20;;
54167;SDS011;68429;50.958;3.592;2023-08-30T03:09:00;14.13;;;7.05;;
54167;SDS011;68429;50.958;3.592;2023-08-30T03:11:27;8.32;;;6.55;;
54167;SDS011;68429;50.958;3.592;2023-08-30T03:13:53;12.93;;;6.40;;
54167;SDS011;68429;50.958;3.592;2023-08-30T03:16:19;7.88;;;5.90;;
54167;SDS011;68429;50.958;3.592;2023-08-30T03:18:45;11.13;;;6.93;;
54167;SDS011;68429;50.958;3.592;2023-08-30T03:21:12;7.80;;;6.00;;
54167;SDS011;68429;50.958;3.592;2023-08-30T03:23:38;13.43;;;6.57;;
54167;SDS011;68429;50.958;3.592;2023-08-30T03:26:11;10.93;;;6.70;;
54167;SDS011;68429;50.958;3.592;2023-08-30T03:28:38;9.20;;;6.38;;
54167;SDS011;68429;50.958;3.592;2023-08-30T03:33:59;12.82;;;6.68;;
54167;SDS011;68429;50.958;3.592;2023-08-30T03:36:25;11.90;;;6.68;;
54167;SDS011;68429;50.958;3.592;2023-08-30T03:38:50;14.45;;;6.53;;
54167;SDS011;68429;50.958;3.592;2023-08-30T03:41:16;12.00;;;6.72;;
54167;SDS011;68429;50.958;3.592;2023-08-30T03:43:42;11.35;;;6.60;;
54167;SDS011;68429;50.958;3.592;2023-08-30T03:46:08;17.55;;;6.93;;
54167;SDS011;68429;50.958;3.592;2023-08-30T03:48:36;12.32;;;7.20;;
54167;SDS011;68429;50.958;3.592;2023-08-30T03:51:02;12.77;;;7.85;;
54167;SDS011;68429;50.958;3.592;2023-08-30T03:53:28;10.30;;;7.50;;
54167;SDS011;68429;50.958;3.592;2023-08-30T03:55:55;16.45;;;7.78;;
54167;SDS011;68429;50.958;3.592;2023-08-30T03:58:21;10.48;;;7.72;;
54167;SDS011;68429;50.958;3.592;2023-08-30T04:00:46;10.57;;;7.57;;
54167;SDS011;68429;50.958;3.592;2023-08-30T04:03:13;10.18;;;8.25;;
54167;SDS011;68429;50.958;3.592;2023-08-30T04:05:40;13.65;;;8.50;;
54167;SDS011;68429;50.958;3.592;2023-08-30T04:08:06;14.57;;;8.88;;
54167;SDS011;68429;50.958;3.592;2023-08-30T04:10:36;18.05;;;9.20;;
54167;SDS011;68429;50.958;3.592;2023-08-30T04:13:03;16.38;;;9.20;;
54167;SDS011;68429;50.958;3.592;2023-08-30T04:15:32;10.75;;;9.57;;
54167;SDS011;68429;50.958;3.592;2023-08-30T04:17:58;12.77;;;10.48;;
54167;SDS011;68429;50.958;3.592;2023-08-30T04:20:24;19.50;;;11.77;;
54167;SDS011;68429;50.958;3.592;2023-08-30T04:22:50;14.30;;;12.80;;
54167;SDS011;68429;50.958;3.592;2023-08-30T04:25:16;14.70;;;13.30;;
54167;SDS011;68429;50.958;3.592;2023-08-30T04:27:41;16.45;;;14.38;;
54167;SDS011;68429;50.958;3.592;2023-08-30T04:30:07;16.35;;;14.45;;
54167;SDS011;68429;50.958;3.592;2023-08-30T04:32:34;18.00;;;16.20;;
54167;SDS011;68429;50.958;3.592;2023-08-30T04:35:00;17.67;;;15.98;;
54167;SDS011;68429;50.958;3.592;2023-08-30T04:37:29;20.40;;;17.98;;
54167;SDS011;68429;50.958;3.592;2023-08-30T04:39:56;19.58;;;17.67;;
54167;SDS011;68429;50.958;3.592;2023-08-30T04:42:22;20.83;;;18.05;;
54167;SDS011;68429;50.958;3.592;2023-08-30T04:44:48;21.77;;;19.15;;
54167;SDS011;68429;50.958;3.592;2023-08-30T04:47:13;23.52;;;18.77;;
54167;SDS011;68429;50.958;3.592;2023-08-30T04:49:39;28.38;;;19.85;;
54167;SDS011;68429;50.958;3.592;2023-08-30T04:52:05;22.23;;;18.60;;
54167;SDS011;68429;50.958;3.592;2023-08-30T04:54:30;22.35;;;19.02;;
54167;SDS011;68429;50.958;3.592;2023-08-30T04:56:56;22.48;;;17.73;;
54167;SDS011;68429;50.958;3.592;2023-08-30T04:59:22;23.33;;;18.23;;
54167;SDS011;68429;50.958;3.592;2023-08-30T05:01:47;20.33;;;17.02;;
54167;SDS011;68429;50.958;3.592;2023-08-30T05:04:13;26.08;;;18.65;;
54167;SDS011;68429;50.958;3.592;2023-08-30T05:06:39;26.02;;;17.45;;
54167;SDS011;68429;50.958;3.592;2023-08-30T05:09:04;21.75;;;17.08;;
54167;SDS011;68429;50.958;3.592;2023-08-30T05:11:31;25.40;;;17.77;;
54167;SDS011;68429;50.958;3.592;2023-08-30T05:13:57;20.77;;;15.30;;
54167;SDS011;68429;50.958;3.592;2023-08-30T05:16:22;20.17;;;14.90;;
54167;SDS011;68429;50.958;3.592;2023-08-30T05:18:48;22.08;;;15.57;;
54167;SDS011;68429;50.958;3.592;2023-08-30T05:21:14;21.40;;;15.63;;
54167;SDS011;68429;50.958;3.592;2023-08-30T05:23:40;22.83;;;15.05;;
54167;SDS011;68429;50.958;3.592;2023-08-30T05:26:10;22.27;;;14.15;;
54167;SDS011;68429;50.958;3.592;2023-08-30T05:28:39;16.20;;;13.07;;
54167;SDS011;68429;50.958;3.592;2023-08-30T05:31:04;22.38;;;12.63;;
54167;SDS011;68429;50.958;3.592;2023-08-30T05:33:31;19.52;;;13.95;;
54167;SDS011;68429;50.958;3.592;2023-08-30T05:35:56;18.08;;;13.52;;
54167;SDS011;68429;50.958;3.592;2023-08-30T05:38:22;17.92;;;12.40;;
54167;SDS011;68429;50.958;3.592;2023-08-30T05:40:47;17.05;;;12.02;;
54167;SDS011;68429;50.958;3.592;2023-08-30T05:43:13;16.92;;;11.80;;
54167;SDS011;68429;50.958;3.592;2023-08-30T05:45:40;16.27;;;11.32;;
54167;SDS011;68429;50.958;3.592;2023-08-30T05:48:06;16.48;;;11.57;;
54167;SDS011;68429;50.958;3.592;2023-08-30T05:50:31;18.73;;;11.88;;
54167;SDS011;68429;50.958;3.592;2023-08-30T05:52:57;19.67;;;13.07;;
54167;SDS011;68429;50.958;3.592;2023-08-30T05:55:23;18.17;;;12.13;;
54167;SDS011;68429;50.958;3.592;2023-08-30T05:57:48;16.35;;;11.23;;
54167;SDS011;68429;50.958;3.592;2023-08-30T06:00:14;15.40;;;12.02;;
54167;SDS011;68429;50.958;3.592;2023-08-30T06:02:40;16.58;;;11.75;;
54167;SDS011;68429;50.958;3.592;2023-08-30T06:05:06;16.75;;;11.98;;
54167;SDS011;68429;50.958;3.592;2023-08-30T06:07:32;17.67;;;12.02;;
54167;SDS011;68429;50.958;3.592;2023-08-30T06:09:58;15.45;;;10.45;;
54167;SDS011;68429;50.958;3.592;2023-08-30T06:12:24;16.05;;;11.30;;
54167;SDS011;68429;50.958;3.592;2023-08-30T06:14:50;16.60;;;11.75;;
54167;SDS011;68429;50.958;3.592;2023-08-30T06:17:18;14.90;;;10.95;;
54167;SDS011;68429;50.958;3.592;2023-08-30T06:19:44;13.35;;;10.23;;
54167;SDS011;68429;50.958;3.592;2023-08-30T06:22:10;11.52;;;10.27;;
54167;SDS011;68429;50.958;3.592;2023-08-30T06:24:36;13.93;;;9.68;;
54167;SDS011;68429;50.958;3.592;2023-08-30T06:27:02;13.80;;;10.55;;
54167;SDS011;68429;50.958;3.592;2023-08-30T06:29:28;14.40;;;10.05;;
54167;SDS011;68429;50.958;3.592;2023-08-30T06:31:54;12.13;;;9.98;;
54167;SDS011;68429;50.958;3.592;2023-08-30T06:34:19;12.73;;;10.13;;
54167;SDS011;68429;50.958;3.592;2023-08-30T06:36:45;11.10;;;9.27;;
54167;SDS011;68429;50.958;3.592;2023-08-30T06:39:11;12.10;;;10.65;;
54167;SDS011;68429;50.958;3.592;2023-08-30T06:41:36;10.75;;;9.73;;
54167;SDS011;68429;50.958;3.592;2023-08-30T06:44:02;15.77;;;11.82;;
54167;SDS011;68429;50.958;3.592;2023-08-30T06:46:29;11.30;;;9.05;;
54167;SDS011;68429;50.958;3.592;2023-08-30T06:48:54;11.88;;;9.13;;
54167;SDS011;68429;50.958;3.592;2023-08-30T06:51:20;9.45;;;8.48;;
54167;SDS011;68429;50.958;3.592;2023-08-30T06:53:45;13.38;;;9.30;;
54167;SDS011;68429;50.958;3.592;2023-08-30T06:56:12;9.10;;;8.23;;
54167;SDS011;68429;50.958;3.592;2023-08-30T06:58:38;10.80;;;9.52;;
54167;SDS011;68429;50.958;3.592;2023-08-30T07:01:03;11.18;;;9.45;;
54167;SDS011;68429;50.958;3.592;2023-08-30T07:03:29;13.27;;;9.05;;
54167;SDS011;68429;50.958;3.592;2023-08-30T07:05:55;12.70;;;11.25;;
54167;SDS011;68429;50.958;3.592;2023-08-30T07:08:20;15.43;;;11.02;;
54167;SDS011;68429;50.958;3.592;2023-08-30T07:10:46;12.90;;;11.38;;
54167;SDS011;68429;50.958;3.592;2023-08-30T07:13:12;12.95;;;10.85;;
54167;SDS011;68429;50.958;3.592;2023-08-30T07:15:41;13.00;;;11.25;;
54167;SDS011;68429;50.958;3.592;2023-08-30T07:18:07;15.50;;;11.55;;
54167;SDS011;68429;50.958;3.592;2023-08-30T07:20:34;11.82;;;10.55;;
54167;SDS011;68429;50.958;3.592;2023-08-30T07:23:01;15.27;;;13.02;;
54167;SDS011;68429;50.958;3.592;2023-08-30T07:25:27;17.98;;;12.52;;
54167;SDS011;68429;50.958;3.592;2023-08-30T07:27:54;18.58;;;12.63;;
54167;SDS011;68429;50.958;3.592;2023-08-30T07:30:20;17.45;;;11.30;;
54167;SDS011;68429;50.958;3.592;2023-08-30T07:32:45;15.70;;;13.38;;
54167;SDS011;68429;50.958;3.592;2023-08-30T07:35:11;22.20;;;15.65;;
54167;SDS011;68429;50.958;3.592;2023-08-30T07:37:36;16.73;;;14.98;;
54167;SDS011;68429;50.958;3.592;2023-08-30T07:40:02;17.92;;;14.07;;
54167;SDS011;68429;50.958;3.592;2023-08-30T07:42:31;16.40;;;14.77;;
54167;SDS011;68429;50.958;3.592;2023-08-30T07:44:56;19.83;;;13.25;;
54167;SDS011;68429;50.958;3.592;2023-08-30T07:47:22;22.05;;;15.55;;
54167;SDS011;68429;50.958;3.592;2023-08-30T07:49:47;17.02;;;13.23;;
54167;SDS011;68429;50.958;3.592;2023-08-30T07:52:13;13.98;;;12.40;;
54167;SDS011;68429;50.958;3.592;2023-08-30T07:54:39;16.67;;;13.05;;
54167;SDS011;68429;50.958;3.592;2023-08-30T07:57:05;17.23;;;11.93;;
54167;SDS011;68429;50.958;3.592;2023-08-30T07:59:38;15.75;;;11.50;;
54167;SDS011;68429;50.958;3.592;2023-08-30T08:02:04;13.45;;;11.05;;
54167;SDS011;68429;50.958;3.592;2023-08-30T08:04:32;16.30;;;11.27;;
54167;SDS011;68429;50.958;3.592;2023-08-30T08:07:01;11.95;;;10.73;;
54167;SDS011;68429;50.958;3.592;2023-08-30T08:09:28;12.38;;;10.63;;
54167;SDS011;68429;50.958;3.592;2023-08-30T08:11:53;10.38;;;9.40;;
54167;SDS011;68429;50.958;3.592;2023-08-30T08:14:21;10.35;;;9.10;;
54167;SDS011;68429;50.958;3.592;2023-08-30T08:16:48;10.93;;;9.00;;
54167;SDS011;68429;50.958;3.592;2023-08-30T08:19:14;11.63;;;8.98;;
54167;SDS011;68429;50.958;3.592;2023-08-30T08:21:39;14.98;;;9.25;;
54167;SDS011;68429;50.958;3.592;2023-08-30T08:24:05;11.50;;;8.95;;
54167;SDS011;68429;50.958;3.592;2023-08-30T08:26:31;12.27;;;9.73;;
54167;SDS011;68429;50.958;3.592;2023-08-30T08:28:56;14.15;;;9.48;;
54167;SDS011;68429;50.958;3.592;2023-08-30T08:31:22;16.85;;;9.70;;
54167;SDS011;68429;50.958;3.592;2023-08-30T08:33:52;12.05;;;9.20;;
54167;SDS011;68429;50.958;3.592;2023-08-30T08:36:40;12.18;;;8.55;;
54167;SDS011;68429;50.958;3.592;2023-08-30T08:39:07;12.23;;;7.05;;
54167;SDS011;68429;50.958;3.592;2023-08-30T08:41:44;9.73;;;6.70;;
54167;SDS011;68429;50.958;3.592;2023-08-30T08:44:11;12.80;;;6.53;;
54167;SDS011;68429;50.958;3.592;2023-08-30T08:46:38;8.63;;;5.82;;
54167;SDS011;68429;50.958;3.592;2023-08-30T08:49:11;10.23;;;5.77;;
54167;SDS011;68429;50.958;3.592;2023-08-30T08:51:38;11.90;;;5.93;;
54167;SDS011;68429;50.958;3.592;2023-08-30T08:54:05;9.52;;;4.63;;
54167;SDS011;68429;50.958;3.592;2023-08-30T08:56:31;8.30;;;3.97;;
54167;SDS011;68429;50.958;3.592;2023-08-30T08:58:58;7.18;;;4.13;;
54167;SDS011;68429;50.958;3.592;2023-08-30T09:01:25;7.03;;;4.20;;
54167;SDS011;68429;50.958;3.592;2023-08-30T09:03:51;7.03;;;3.50;;
54167;SDS011;68429;50.958;3.592;2023-08-30T09:06:17;5.47;;;3.33;;
54167;SDS011;68429;50.958;3.592;2023-08-30T09:08:43;11.57;;;3.33;;
54167;SDS011;68429;50.958;3.592;2023-08-30T09:11:09;7.95;;;2.80;;
54167;SDS011;68429;50.958;3.592;2023-08-30T09:13:34;6.47;;;2.78;;
54167;SDS011;68429;50.958;3.592;2023-08-30T09:16:00;9.55;;;3.15;;
54167;SDS011;68429;50.958;3.592;2023-08-30T09:18:27;10.63;;;3.05;;
54167;SDS011;68429;50.958;3.592;2023-08-30T09:21:04;7.18;;;2.63;;
54167;SDS011;68429;50.958;3.592;2023-08-30T09:23:33;9.60;;;3.15;;
54167;SDS011;68429;50.958;3.592;2023-08-30T09:25:59;8.07;;;2.85;;
54167;SDS011;68429;50.958;3.592;2023-08-30T09:28:25;9.57;;;3.00;;
54167;SDS011;68429;50.958;3.592;2023-08-30T09:30:52;9.60;;;3.03;;
54167;SDS011;68429;50.958;3.592;2023-08-30T09:33:30;11.02;;;3.42;;
54167;SDS011;68429;50.958;3.592;2023-08-30T09:35:57;15.73;;;3.83;;
54167;SDS011;68429;50.958;3.592;2023-08-30T09:38:24;15.07;;;3.03;;
54167;SDS011;68429;50.958;3.592;2023-08-30T09:40:50;17.13;;;2.80;;
54167;SDS011;68429;50.958;3.592;2023-08-30T09:43:19;9.93;;;2.97;;
54167;SDS011;68429;50.958;3.592;2023-08-30T09:45:50;11.02;;;3.40;;
54167;SDS011;68429;50.958;3.592;2023-08-30T09:48:17;12.27;;;3.05;;
54167;SDS011;68429;50.958;3.592;2023-08-30T09:50:53;9.95;;;3.00;;
54167;SDS011;68429;50.958;3.592;2023-08-30T09:53:23;11.27;;;3.00;;
54167;SDS011;68429;50.958;3.592;2023-08-30T09:55:53;8.55;;;2.75;;
54167;SDS011;68429;50.958;3.592;2023-08-30T09:58:20;11.25;;;3.53;;
54167;SDS011;68429;50.958;3.592;2023-08-30T10:00:46;12.20;;;2.97;;
54167;SDS011;68429;50.958;3.592;2023-08-30T10:03:13;12.25;;;2.92;;
54167;SDS011;68429;50.958;3.592;2023-08-30T10:05:40;11.35;;;3.13;;
54167;SDS011;68429;50.958;3.592;2023-08-30T10:08:06;12.82;;;3.15;;
54167;SDS011;68429;50.958;3.592;2023-08-30T10:10:34;14.55;;;3.22;;
54167;SDS011;68429;50.958;3.592;2023-08-30T10:13:01;12.23;;;3.33;;
54167;SDS011;68429;50.958;3.592;2023-08-30T10:15:26;13.35;;;3.22;;
54167;SDS011;68429;50.958;3.592;2023-08-30T10:17:55;10.73;;;2.95;;
54167;SDS011;68429;50.958;3.592;2023-08-30T10:20:23;9.15;;;2.70;;
54167;SDS011;68429;50.958;3.592;2023-08-30T10:22:51;15.00;;;3.10;;
54167;SDS011;68429;50.958;3.592;2023-08-30T10:25:19;12.32;;;3.45;;
54167;SDS011;68429;50.958;3.592;2023-08-30T10:27:48;11.20;;;3.58;;
54167;SDS011;68429;50.958;3.592;2023-08-30T10:30:15;8.38;;;2.80;;
54167;SDS011;68429;50.958;3.592;2023-08-30T10:32:43;9.95;;;2.70;;
54167;SDS011;68429;50.958;3.592;2023-08-30T10:35:13;7.68;;;2.72;;
54167;SDS011;68429;50.958;3.592;2023-08-30T10:37:40;10.98;;;2.88;;
54167;SDS011;68429;50.958;3.592;2023-08-30T10:40:06;11.73;;;2.60;;
54167;SDS011;68429;50.958;3.592;2023-08-30T10:42:33;9.85;;;2.95;;
54167;SDS011;68429;50.958;3.592;2023-08-30T10:47:30;6.63;;;2.40;;
54167;SDS011;68429;50.958;3.592;2023-08-30T10:49:57;7.05;;;2.67;;
54167;SDS011;68429;50.958;3.592;2023-08-30T10:52:25;10.18;;;2.92;;
54167;SDS011;68429;50.958;3.592;2023-08-30T10:54:51;11.60;;;3.00;;
54167;SDS011;68429;50.958;3.592;2023-08-30T10:57:20;10.55;;;3.17;;
54167;SDS011;68429;50.958;3.592;2023-08-30T11:02:47;14.00;;;2.75;;
54167;SDS011;68429;50.958;3.592;2023-08-30T11:05:18;10.90;;;2.30;;
54167;SDS011;68429;50.958;3.592;2023-08-30T11:07:47;9.80;;;2.47;;
54167;SDS011;68429;50.958;3.592;2023-08-30T11:10:14;7.78;;;2.60;;
54167;SDS011;68429;50.958;3.592;2023-08-30T11:12:43;8.95;;;2.53;;
54167;SDS011;68429;50.958;3.592;2023-08-30T11:15:10;11.77;;;2.50;;
54167;SDS011;68429;50.958;3.592;2023-08-30T11:17:38;7.18;;;2.28;;
54167;SDS011;68429;50.958;3.592;2023-08-30T11:22:39;5.95;;;2.03;;
54167;SDS011;68429;50.958;3.592;2023-08-30T11:25:09;12.02;;;2.80;;
54167;SDS011;68429;50.958;3.592;2023-08-30T11:27:36;9.50;;;2.38;;
54167;SDS011;68429;50.958;3.592;2023-08-30T11:30:03;12.52;;;2.13;;
54167;SDS011;68429;50.958;3.592;2023-08-30T11:32:37;11.70;;;2.67;;
54167;SDS011;68429;50.958;3.592;2023-08-30T11:35:04;8.07;;;2.45;;
54167;SDS011;68429;50.958;3.592;2023-08-30T11:37:31;8.77;;;2.58;;
54167;SDS011;68429;50.958;3.592;2023-08-30T11:39:57;7.57;;;2.28;;
54167;SDS011;68429;50.958;3.592;2023-08-30T11:42:23;9.18;;;2.20;;
54167;SDS011;68429;50.958;3.592;2023-08-30T11:44:50;4.63;;;1.60;;
54167;SDS011;68429;50.958;3.592;2023-08-30T11:47:20;9.65;;;2.30;;
54167;SDS011;68429;50.958;3.592;2023-08-30T11:49:50;5.82;;;1.77;;
54167;SDS011;68429;50.958;3.592;2023-08-30T11:52:19;6.30;;;2.05;;
54167;SDS011;68429;50.958;3.592;2023-08-30T11:54:46;7.25;;;1.60;;
54167;SDS011;68429;50.958;3.592;2023-08-30T11:57:13;6.15;;;1.98;;
54167;SDS011;68429;50.958;3.592;2023-08-30T11:59:39;7.53;;;1.73;;
54167;SDS011;68429;50.958;3.592;2023-08-30T12:02:05;5.03;;;1.80;;
54167;SDS011;68429;50.958;3.592;2023-08-30T12:04:32;8.77;;;1.73;;
54167;SDS011;68429;50.958;3.592;2023-08-30T12:06:58;6.60;;;2.05;;
54167;SDS011;68429;50.958;3.592;2023-08-30T12:09:30;4.43;;;1.88;;
54167;SDS011;68429;50.958;3.592;2023-08-30T12:12:04;9.68;;;1.92;;
54167;SDS011;68429;50.958;3.592;2023-08-30T12:14:34;9.40;;;2.53;;
54167;SDS011;68429;50.958;3.592;2023-08-30T12:19:27;8.23;;;2.00;;
54167;SDS011;68429;50.958;3.592;2023-08-30T12:21:53;6.25;;;1.83;;
54167;SDS011;68429;50.958;3.592;2023-08-30T12:24:19;7.57;;;1.52;;
54167;SDS011;68429;50.958;3.592;2023-08-30T12:26:44;7.85;;;2.33;;
54167;SDS011;68429;50.958;3.592;2023-08-30T12:29:10;7.53;;;2.38;;
54167;SDS011;68429;50.958;3.592;2023-08-30T12:31:35;5.18;;;1.67;;
54167;SDS011;68429;50.958;3.592;2023-08-30T12:34:02;5.35;;;1.58;;
54167;SDS011;68429;50.958;3.592;2023-08-30T12:36:28;6.30;;;1.60;;
54167;SDS011;68429;50.958;3.592;2023-08-30T12:38:54;7.65;;;2.13;;
54167;SDS011;68429;50.958;3.592;2023-08-30T12:41:20;9.35;;;2.25;;
54167;SDS011;68429;50.958;3.592;2023-08-30T12:43:48;6.85;;;2.50;;
54167;SDS011;68429;50.958;3.592;2023-08-30T12:46:14;5.80;;;1.83;;
54167;SDS011;68429;50.958;3.592;2023-08-30T12:48:39;9.50;;;1.70;;
54167;SDS011;68429;50.958;3.592;2023-08-30T12:51:06;6.82;;;1.90;;
54167;SDS011;68429;50.958;3.592;2023-08-30T12:53:31;7.10;;;1.77;;
54167;SDS011;68429;50.958;3.592;2023-08-30T12:55:57;7.03;;;2.00;;
54167;SDS011;68429;50.958;3.592;2023-08-30T12:58:23;6.55;;;1.70;;
54167;SDS011;68429;50.958;3.592;2023-08-30T13:00:49;5.35;;;2.35;;
54167;SDS011;68429;50.958;3.592;2023-08-30T13:03:15;5.28;;;2.05;;
54167;SDS011;68429;50.958;3.592;2023-08-30T13:05:40;7.57;;;1.60;;
54167;SDS011;68429;50.958;3.592;2023-08-30T13:08:06;9.25;;;1.58;;
54167;SDS011;68429;50.958;3.592;2023-08-30T13:10:32;8.43;;;1.50;;
54167;SDS011;68429;50.958;3.592;2023-08-30T13:12:58;6.10;;;1.60;;
54167;SDS011;68429;50.958;3.592;2023-08-30T13:15:24;4.78;;;1.52;;
54167;SDS011;68429;50.958;3.592;2023-08-30T13:17:50;3.65;;;1.60;;
54167;SDS011;68429;50.958;3.592;2023-08-30T13:20:17;8.57;;;2.00;;
54167;SDS011;68429;50.958;3.592;2023-08-30T13:22:43;8.82;;;1.98;;
54167;SDS011;68429;50.958;3.592;2023-08-30T13:25:08;5.32;;;1.55;;
54167;SDS011;68429;50.958;3.592;2023-08-30T13:27:34;7.63;;;1.70;;
54167;SDS011;68429;50.958;3.592;2023-08-30T13:30:00;10.18;;;1.98;;
54167;SDS011;68429;50.958;3.592;2023-08-30T13:32:25;6.65;;;1.77;;
54167;SDS011;68429;50.958;3.592;2023-08-30T13:34:52;5.38;;;1.73;;
54167;SDS011;68429;50.958;3.592;2023-08-30T13:37:17;8.45;;;1.88;;
54167;SDS011;68429;50.958;3.592;2023-08-30T13:39:43;7.45;;;1.83;;
54167;SDS011;68429;50.958;3.592;2023-08-30T13:42:09;4.13;;;1.42;;
54167;SDS011;68429;50.958;3.592;2023-08-30T13:44:35;4.80;;;1.50;;
54167;SDS011;68429;50.958;3.592;2023-08-30T13:47:02;9.20;;;1.77;;
54167;SDS011;68429;50.958;3.592;2023-08-30T13:49:29;8.27;;;1.52;;
54167;SDS011;68429;50.958;3.592;2023-08-30T13:51:55;8.88;;;1.58;;
54167;SDS011;68429;50.958;3.592;2023-08-30T13:54:20;4.95;;;1.45;;
54167;SDS011;68429;50.958;3.592;2023-08-30T13:56:46;5.82;;;1.60;;
54167;SDS011;68429;50.958;3.592;2023-08-30T13:59:12;7.57;;;1.85;;
54167;SDS011;68429;50.958;3.592;2023-08-30T14:01:37;4.13;;;1.23;;
54167;SDS011;68429;50.958;3.592;2023-08-30T14:04:03;5.20;;;1.75;;
54167;SDS011;68429;50.958;3.592;2023-08-30T14:06:30;5.20;;;1.60;;
54167;SDS011;68429;50.958;3.592;2023-08-30T14:08:56;7.10;;;1.33;;
54167;SDS011;68429;50.958;3.592;2023-08-30T14:11:22;4.90;;;1.60;;
54167;SDS011;68429;50.958;3.592;2023-08-30T14:13:47;7.15;;;1.85;;
54167;SDS011;68429;50.958;3.592;2023-08-30T14:16:13;5.45;;;1.23;;
54167;SDS011;68429;50.958;3.592;2023-08-30T14:18:39;5.28;;;1.58;;
54167;SDS011;68429;50.958;3.592;2023-08-30T14:21:05;4.78;;;1.85;;
54167;SDS011;68429;50.958;3.592;2023-08-30T14:23:30;20.48;;;2.05;;
54167;SDS011;68429;50.958;3.592;2023-08-30T14:26:00;4.55;;;1.95;;
54167;SDS011;68429;50.958;3.592;2023-08-30T14:28:33;3.90;;;1.27;;
54167;SDS011;68429;50.958;3.592;2023-08-30T14:30:59;3.05;;;1.25;;
54167;SDS011;68429;50.958;3.592;2023-08-30T14:33:25;6.78;;;1.20;;
54167;SDS011;68429;50.958;3.592;2023-08-30T14:35:51;4.75;;;1.58;;
54167;SDS011;68429;50.958;3.592;2023-08-30T14:38:16;5.85;;;1.45;;
54167;SDS011;68429;50.958;3.592;2023-08-30T14:40:42;4.85;;;1.50;;
54167;SDS011;68429;50.958;3.592;2023-08-30T14:43:08;4.72;;;1.52;;
54167;SDS011;68429;50.958;3.592;2023-08-30T14:45:33;3.15;;;1.30;;
54167;SDS011;68429;50.958;3.592;2023-08-30T14:47:59;8.02;;;1.80;;
54167;SDS011;68429;50.958;3.592;2023-08-30T14:50:25;3.75;;;1.45;;
54167;SDS011;68429;50.958;3.592;2023-08-30T14:52:50;6.53;;;1.75;;
54167;SDS011;68429;50.958;3.592;2023-08-30T14:57:45;6.53;;;1.50;;
54167;SDS011;68429;50.958;3.592;2023-08-30T15:00:11;3.92;;;1.80;;